Frederick E Bouchard — WYT9297 — position and weather

sailwx.info

Track history (hours):
 
Tides and Currents Weather Stations Pressure Air Temp Water Temp Dewpoint Dewpoint Depression Visibility Wind Speed Wind Dir Waves Ship Positions

Frederick E Bouchard

Owner: TUG FREDERICK E BOUCHARD CORP, MELVILLE, NY. More information available from US FCC via Universal Licensing System and Coast Guard Vessel Documentation Center.

Last reported at 2018-Feb-21 19:28 UTC. Time now 2018-Feb-21 19:37 UTC.
Position N 39°52' W 075°13'.

Length 138 m; draft 5.2 m.

MMSI: 367006610.

Date/timePositionNaut miles runAvg speedWind from/ knotsBaromVisibWave heightAir tempDewpointWater temp
2018-Feb-21 19:28N 39°52' W 075°13'0 0.0
2018-Feb-21 18:55N 39°52' W 075°13'0 0.0
2018-Feb-21 18:28N 39°52' W 075°13'0 0.0
2018-Feb-21 17:58N 39°52' W 075°13'0 0.1
2018-Feb-21 17:28N 39°52' W 075°13'0 0.1
2018-Feb-21 16:58N 39°52' W 075°13'0 0.0
2018-Feb-21 16:28N 39°52' W 075°13'0 0.1
2018-Feb-21 15:58N 39°52' W 075°13'0 0.0
2018-Feb-21 15:28N 39°52' W 075°13'0 0.1
2018-Feb-21 14:58N 39°52' W 075°13'0 0.0
2018-Feb-21 14:28N 39°52' W 075°13'0 0.0
2018-Feb-21 13:58N 39°52' W 075°13'0 0.0
2018-Feb-21 13:28N 39°52' W 075°13'0 0.0
2018-Feb-21 12:58N 39°52' W 075°13'0 0.0
2018-Feb-21 12:28N 39°52' W 075°13'0 0.0
2018-Feb-21 11:58N 39°52' W 075°13'0 0.1
2018-Feb-21 11:28N 39°52' W 075°13'0 0.2
2018-Feb-21 10:58N 39°52' W 075°13'0 0.1
2018-Feb-21 10:28N 39°52' W 075°13'0 0.0
2018-Feb-21 09:58N 39°52' W 075°13'0 0.0
2018-Feb-21 09:28N 39°52' W 075°13'0 0.0
2018-Feb-21 08:58N 39°52' W 075°13'0 0.0
2018-Feb-21 08:28N 39°52' W 075°13'0 0.0
2018-Feb-21 07:58N 39°52' W 075°13'0 0.0
2018-Feb-21 07:28N 39°52' W 075°13'0 0.0
2018-Feb-21 06:58N 39°52' W 075°13'0 0.0
2018-Feb-21 06:28N 39°52' W 075°13'0 0.0
2018-Feb-21 05:58N 39°52' W 075°13'0 0.1
2018-Feb-21 05:28N 39°52' W 075°13'0 0.1
2018-Feb-21 04:58N 39°52' W 075°13'0 0.0
2018-Feb-21 04:28N 39°52' W 075°13'0 0.1
2018-Feb-21 03:58N 39°52' W 075°13'0 0.0
2018-Feb-21 03:28N 39°52' W 075°13'0 0.0
2018-Feb-21 02:58N 39°52' W 075°13'0 0.0
2018-Feb-21 02:28N 39°52' W 075°13'0 0.0
2018-Feb-21 01:58N 39°52' W 075°13'0 0.0
2018-Feb-21 01:28N 39°52' W 075°13'0 0.0
2018-Feb-21 00:58N 39°52' W 075°13'0 0.0
2018-Feb-21 00:28N 39°52' W 075°13'0 0.0
2018-Feb-20 23:58N 39°52' W 075°13'0 0.0
2018-Feb-20 23:31N 39°52' W 075°13'0 0.1
2018-Feb-20 23:00N 39°52' W 075°13'3 7.0
2018-Feb-20 22:31N 39°51' W 075°17'4 8.3
2018-Feb-20 22:00N 39°50' W 075°23'2 3.1
2018-Feb-20 21:31N 39°49' W 075°24'0 0.0
2018-Feb-20 21:00N 39°49' W 075°24'0 0.0
2018-Feb-20 20:31N 39°49' W 075°24'0 0.0
2018-Feb-20 20:00N 39°49' W 075°24'0 0.0
2018-Feb-20 19:31N 39°49' W 075°24'0 0.0
2018-Feb-20 19:00N 39°49' W 075°24'0 0.0
2018-Feb-20 18:31N 39°49' W 075°24'0 0.0
2018-Feb-20 18:01N 39°49' W 075°24'0 0.0
2018-Feb-20 17:30N 39°49' W 075°24'0 0.0
2018-Feb-20 17:01N 39°49' W 075°24'0 0.0
2018-Feb-20 16:31N 39°49' W 075°24'0 0.0
2018-Feb-20 16:01N 39°49' W 075°24'0 0.0
2018-Feb-20 15:30N 39°49' W 075°24'0 0.0
2018-Feb-20 15:01N 39°49' W 075°24'0 0.0
2018-Feb-20 14:31N 39°49' W 075°24'0 0.8
2018-Feb-20 14:00N 39°49' W 075°24'3 6.1
2018-Feb-20 13:31N 39°51' W 075°21'1 2.3
2018-Feb-20 13:00N 39°51' W 075°19'0 0.0
2018-Feb-20 12:31N 39°51' W 075°19'0 0.0
2018-Feb-20 12:01N 39°51' W 075°19'0 0.0
2018-Feb-20 11:31N 39°51' W 075°19'0 0.0
2018-Feb-20 11:01N 39°51' W 075°19'0 0.0
2018-Feb-20 10:30N 39°51' W 075°19'0 0.0
2018-Feb-20 10:01N 39°51' W 075°19'0 0.0
2018-Feb-20 09:30N 39°51' W 075°19'0 0.0
2018-Feb-20 09:00N 39°51' W 075°19'0 0.0
2018-Feb-20 08:30N 39°51' W 075°19'0 0.0
2018-Feb-20 08:00N 39°51' W 075°19'0 0.0
2018-Feb-20 07:31N 39°51' W 075°19'0 0.0
2018-Feb-20 07:00N 39°51' W 075°19'0 0.0
2018-Feb-20 06:30N 39°51' W 075°19'0 0.0
2018-Feb-20 06:01N 39°51' W 075°19'0 0.0
2018-Feb-20 05:30N 39°51' W 075°19'0 0.0
2018-Feb-20 05:01N 39°51' W 075°19'0 0.0
2018-Feb-20 04:31N 39°51' W 075°19'0 0.0
2018-Feb-20 04:01N 39°51' W 075°19'0 0.0
2018-Feb-20 03:30N 39°51' W 075°19'0 0.0
2018-Feb-20 03:01N 39°51' W 075°19'0 0.0
2018-Feb-20 02:31N 39°51' W 075°19'0 0.0
2018-Feb-20 02:01N 39°51' W 075°19'0 0.0
2018-Feb-20 01:30N 39°51' W 075°19'0 0.0
2018-Feb-20 01:00N 39°51' W 075°19'0 0.0
2018-Feb-20 00:30N 39°51' W 075°19'0 0.1
2018-Feb-20 00:01N 39°51' W 075°19'0 0.0
2018-Feb-19 23:31N 39°51' W 075°19'0 0.0
2018-Feb-19 23:00N 39°51' W 075°19'0 0.0
2018-Feb-19 22:30N 39°51' W 075°19'0 0.0
2018-Feb-19 22:00N 39°51' W 075°19'0 0.0
2018-Feb-19 21:31N 39°51' W 075°19'0 0.0
2018-Feb-19 21:01N 39°51' W 075°19'0 0.0
2018-Feb-19 20:30N 39°51' W 075°19'0 0.0
2018-Feb-19 20:00N 39°51' W 075°19'0 0.0
2018-Feb-19 19:31N 39°51' W 075°19'0 0.0
2018-Feb-19 19:00N 39°51' W 075°19'0 0.0
2018-Feb-19 18:30N 39°51' W 075°19'0 0.0
2018-Feb-19 18:00N 39°51' W 075°19'0 0.0
2018-Feb-19 17:31N 39°51' W 075°19'0 0.0
2018-Feb-19 17:00N 39°51' W 075°19'0 0.0
2018-Feb-19 16:31N 39°51' W 075°19'0 0.0
2018-Feb-19 16:01N 39°51' W 075°19'0 0.0
2018-Feb-19 15:30N 39°51' W 075°19'0 0.0
2018-Feb-19 15:00N 39°51' W 075°19'0 0.0
2018-Feb-19 14:30N 39°51' W 075°19'0 0.0
2018-Feb-19 14:01N 39°51' W 075°19'0 0.0
2018-Feb-19 13:31N 39°51' W 075°19'0 0.0
2018-Feb-19 13:01N 39°51' W 075°19'1 2.9
2018-Feb-19 12:30N 39°51' W 075°18'4 7.9
2018-Feb-19 12:01N 39°52' W 075°13'0 0.1
2018-Feb-19 11:30N 39°52' W 075°13'0 0.0
2018-Feb-19 11:01N 39°52' W 075°13'0 0.1
2018-Feb-19 10:31N 39°52' W 075°13'0 0.1
2018-Feb-19 10:01N 39°52' W 075°13'0 0.0
2018-Feb-19 09:30N 39°52' W 075°13'0 0.0
2018-Feb-19 09:01N 39°52' W 075°13'0 0.0
2018-Feb-19 08:31N 39°52' W 075°13'0 0.0
2018-Feb-19 08:01N 39°52' W 075°13'0 0.0
2018-Feb-19 07:31N 39°52' W 075°13'0 0.0
2018-Feb-19 07:00N 39°52' W 075°13'0 0.0
2018-Feb-19 06:30N 39°52' W 075°13'0 0.0
2018-Feb-19 06:01N 39°52' W 075°13'0 0.0
2018-Feb-19 05:31N 39°52' W 075°13'0 0.0
2018-Feb-19 05:00N 39°52' W 075°13'0 0.1
2018-Feb-19 04:31N 39°52' W 075°13'0 0.1
2018-Feb-19 04:00N 39°52' W 075°13'0 0.1
2018-Feb-19 03:30N 39°52' W 075°13'0 0.0
2018-Feb-19 03:01N 39°52' W 075°13'2 3.4
2018-Feb-19 02:30N 39°54' W 075°12'2 3.5
2018-Feb-19 02:01N 39°52' W 075°13'0 0.0
2018-Feb-19 01:31N 39°52' W 075°13'0 0.0
2018-Feb-19 01:01N 39°52' W 075°13'0 0.0
2018-Feb-19 00:31N 39°52' W 075°13'0 0.0
2018-Feb-19 00:01N 39°52' W 075°13'2 3.3
2018-Feb-18 23:31N 39°54' W 075°12'2 3.3
2018-Feb-18 23:01N 39°52' W 075°13'0 0.0
2018-Feb-18 22:31N 39°52' W 075°13'0 0.0
2018-Feb-18 22:00N 39°52' W 075°13'0 0.0
2018-Feb-18 21:30N 39°52' W 075°13'0 0.0
2018-Feb-18 21:01N 39°52' W 075°13'0 0.1
2018-Feb-18 20:31N 39°52' W 075°13'0 0.0
2018-Feb-18 20:00N 39°52' W 075°13'0 0.0
2018-Feb-18 19:31N 39°52' W 075°13'0 0.0
2018-Feb-18 19:00N 39°52' W 075°13'0 0.0
2018-Feb-18 18:31N 39°52' W 075°13'0 0.0
2018-Feb-18 18:00N 39°52' W 075°13'0 0.5
2018-Feb-18 17:30N 39°52' W 075°13'3 6.2
2018-Feb-18 17:00N 39°51' W 075°17'5 9.6
2018-Feb-18 16:31N 39°50' W 075°23'5 9.7
2018-Feb-18 16:00N 39°47' W 075°28'5 9.1
2018-Feb-18 15:30N 39°43' W 075°30'5 8.9
2018-Feb-18 15:00N 39°39' W 075°33'4 8.0
2018-Feb-18 14:31N 39°35' W 075°33'4 8.2
2018-Feb-18 14:01N 39°31' W 075°33'4 7.6
2018-Feb-18 13:30N 39°27' W 075°33'4 8.3
2018-Feb-18 13:00N 39°24' W 075°29'4 7.7
2018-Feb-18 12:31N 39°21' W 075°26'4 7.1
2018-Feb-18 12:00N 39°18' W 075°23'4 7.1
2018-Feb-18 11:31N 39°16' W 075°20'3 6.7
2018-Feb-18 11:00N 39°13' W 075°17'3 6.8
2018-Feb-18 10:31N 39°10' W 075°15'3 6.9
2018-Feb-18 10:00N 39°07' W 075°13'3 6.4
2018-Feb-18 09:30N 39°04' W 075°11'3 6.2
2018-Feb-18 09:00N 39°02' W 075°09'3 6.1
2018-Feb-18 08:30N 38°59' W 075°07'4 5.3
2018-Feb-18 07:43N 38°55' W 075°05'52 6.9
2018-Feb-18 00:10N 39°29' W 074°15'2 8.9
2018-Feb-17 23:59N 39°31' W 074°14'4 8.7
2018-Feb-17 23:29N 39°34' W 074°11'4 8.8
2018-Feb-17 22:59N 39°38' W 074°08'5 9.0
2018-Feb-17 22:29N 39°42' W 074°05'4 8.8
2018-Feb-17 21:59N 39°46' W 074°03'29 9.1
2018-Feb-17 18:48N 40°15' W 073°58'4 9.3
2018-Feb-17 18:21N 40°19' W 073°57'3 9.3
2018-Feb-17 18:00N 40°22' W 073°56'5 9.1
2018-Feb-17 17:29N 40°27' W 073°55'4 7.7
2018-Feb-17 17:00N 40°30' W 073°57'4 8.9
2018-Feb-17 16:30N 40°33' W 074°02'4 8.7
2018-Feb-17 16:01N 40°37' W 074°03'3 5.7
2018-Feb-17 15:30N 40°40' W 074°01'2 3.2
2018-Feb-17 15:00N 40°42' W 074°00'0 0.0
2018-Feb-17 14:30N 40°42' W 074°00'0 0.0
2018-Feb-17 14:00N 40°42' W 074°00'0 0.0
2018-Feb-17 13:31N 40°42' W 074°00'0 0.1
2018-Feb-17 13:00N 40°42' W 074°00'4 7.1
2018-Feb-17 12:30N 40°40' W 074°04'4 8.3
2018-Feb-17 12:00N 40°39' W 074°09'4 7.3
2018-Feb-17 11:30N 40°36' W 074°12'3 5.3
2018-Feb-17 10:58N 40°33' W 074°14'0 0.0
2018-Feb-17 10:28N 40°33' W 074°14'0 0.0
2018-Feb-17 10:00N 40°33' W 074°14'0 0.0
2018-Feb-17 08:39N 40°33' W 074°14'0 0.0
2018-Feb-17 08:15N 40°33' W 074°14'0 0.0
2018-Feb-17 07:14N 40°33' W 074°14'0 0.2
2018-Feb-17 07:00N 40°33' W 074°15'0 0.0
2018-Feb-17 06:11N 40°33' W 074°15'0 2.1
2018-Feb-17 06:00N 40°33' W 074°14'4 8.6
2018-Feb-17 05:30N 40°38' W 074°12'4 8.4
2018-Feb-17 05:00N 40°39' W 074°07'0 0.6
2018-Feb-17 04:26N 40°39' W 074°07'0 0.0
2018-Feb-17 04:00N 40°39' W 074°07'0 0.0
2018-Feb-17 03:30N 40°39' W 074°07'2 3.5
2018-Feb-17 03:00N 40°38' W 074°09'3 6.8
2018-Feb-17 02:30N 40°36' W 074°12'4 8.3
2018-Feb-17 02:00N 40°33' W 074°15'0 0.3
2018-Feb-17 01:29N 40°33' W 074°15'1 1.6
2018-Feb-17 00:59N 40°33' W 074°14'1 1.3
2018-Feb-17 00:30N 40°33' W 074°15'0 0.0
2018-Feb-17 00:00N 40°33' W 074°15'0 0.0
2018-Feb-16 23:29N 40°33' W 074°15'0 0.0
2018-Feb-16 23:00N 40°33' W 074°15'0 0.1
2018-Feb-16 22:24N 40°33' W 074°15'0 0.1
2018-Feb-16 22:00N 40°33' W 074°15'1 1.7
2018-Feb-16 21:30N 40°33' W 074°14'3 6.0
2018-Feb-16 20:59N 40°36' W 074°12'3 6.5
2018-Feb-16 20:30N 40°39' W 074°10'2 4.8
2018-Feb-16 20:00N 40°39' W 074°07'0 0.3
2018-Feb-16 19:30N 40°39' W 074°07'0 0.0
2018-Feb-16 18:58N 40°39' W 074°07'0 0.1
2018-Feb-16 18:30N 40°39' W 074°07'0 0.8
2018-Feb-16 17:59N 40°39' W 074°07'0 0.0
2018-Feb-16 17:29N 40°39' W 074°07'0 0.0
2018-Feb-16 16:59N 40°39' W 074°07'0 0.0
2018-Feb-16 16:29N 40°39' W 074°07'0 0.0
2018-Feb-16 15:59N 40°39' W 074°07'0 0.0
2018-Feb-16 15:29N 40°39' W 074°07'0 0.0
2018-Feb-16 14:59N 40°39' W 074°07'0 0.0
2018-Feb-16 14:30N 40°39' W 074°07'0 0.0
2018-Feb-16 13:59N 40°39' W 074°07'0 0.0
2018-Feb-16 13:29N 40°39' W 074°07'0 0.0
2018-Feb-16 12:59N 40°39' W 074°07'0 0.0
2018-Feb-16 12:29N 40°39' W 074°07'0 0.0
2018-Feb-16 11:59N 40°39' W 074°07'0 0.4
2018-Feb-16 11:29N 40°39' W 074°07'0 0.0
2018-Feb-16 10:59N 40°39' W 074°07'0 0.0
2018-Feb-16 10:29N 40°39' W 074°07'0 0.0
2018-Feb-16 09:59N 40°39' W 074°07'0 0.0
2018-Feb-16 09:29N 40°39' W 074°07'0 0.0
2018-Feb-16 08:59N 40°39' W 074°07'0 0.0
2018-Feb-16 08:29N 40°39' W 074°07'0 0.0
2018-Feb-16 07:59N 40°39' W 074°07'0 0.0
2018-Feb-16 07:29N 40°39' W 074°07'0 0.0
2018-Feb-16 06:58N 40°39' W 074°07'0 0.0
2018-Feb-16 06:28N 40°39' W 074°07'0 0.0
2018-Feb-16 05:58N 40°39' W 074°07'0 0.0
2018-Feb-16 05:28N 40°39' W 074°07'0 0.0
2018-Feb-16 04:58N 40°39' W 074°07'0 0.0
2018-Feb-16 04:28N 40°39' W 074°07'0 0.0
2018-Feb-16 03:58N 40°39' W 074°07'0 0.0
2018-Feb-16 03:28N 40°39' W 074°07'0 0.0
2018-Feb-16 02:58N 40°39' W 074°07'0 0.0
2018-Feb-16 02:28N 40°39' W 074°07'0 0.0
2018-Feb-16 01:58N 40°39' W 074°07'1 2.0
2018-Feb-16 01:28N 40°39' W 074°06'0 0.0
2018-Feb-16 00:58N 40°39' W 074°06'0 0.0
2018-Feb-16 00:28N 40°39' W 074°06'0 0.0
2018-Feb-15 23:58N 40°39' W 074°06'0 0.0
2018-Feb-15 23:28N 40°39' W 074°06'0 0.0
2018-Feb-15 22:58N 40°39' W 074°06'0 0.0
2018-Feb-15 22:28N 40°39' W 074°06'0 0.0
2018-Feb-15 21:58N 40°39' W 074°06'0 0.0
2018-Feb-15 21:28N 40°39' W 074°06'0 0.0
2018-Feb-15 20:55N 40°39' W 074°06'0 0.0
2018-Feb-15 20:28N 40°39' W 074°06'0 0.0
2018-Feb-15 19:58N 40°39' W 074°06'0 0.0
2018-Feb-15 19:28N 40°39' W 074°06'0 0.0
2018-Feb-15 18:58N 40°39' W 074°06'0 0.0
2018-Feb-15 18:28N 40°39' W 074°06'0 0.0
2018-Feb-15 17:58N 40°39' W 074°06'3 5.5
2018-Feb-15 17:30N 40°39' W 074°09'3 6.0
2018-Feb-15 16:59N 40°37' W 074°12'1 0.2
2018-Feb-15 11:19N 40°35' W 074°12'3 7.7
2018-Feb-15 10:59N 40°38' W 074°12'4 8.2
2018-Feb-15 10:30N 40°39' W 074°07'5 9.2
2018-Feb-15 10:00N 40°41' W 074°01'1 2.4
2018-Feb-15 09:30N 40°41' W 074°00'0 0.1
2018-Feb-15 09:00N 40°42' W 074°00'0 0.1
2018-Feb-15 08:30N 40°41' W 074°00'0 0.0
2018-Feb-15 08:00N 40°41' W 074°00'0 0.0
2018-Feb-15 07:30N 40°41' W 074°00'0 0.0
2018-Feb-15 07:00N 40°41' W 074°00'0 0.0
2018-Feb-15 06:30N 40°42' W 074°00'0 0.0
2018-Feb-15 06:00N 40°41' W 074°00'0 0.0
2018-Feb-15 05:30N 40°41' W 074°00'0 0.0
2018-Feb-15 05:00N 40°41' W 074°00'0 0.0
2018-Feb-15 04:30N 40°41' W 074°00'2 3.6
2018-Feb-15 04:00N 40°40' W 074°02'1 1.9
2018-Feb-15 03:29N 40°39' W 074°03'0 0.1
2018-Feb-15 02:59N 40°39' W 074°03'0 0.1
2018-Feb-15 02:29N 40°40' W 074°03'0 0.0
2018-Feb-15 01:59N 40°40' W 074°03'0 0.0
2018-Feb-15 01:29N 40°40' W 074°03'0 0.0
2018-Feb-15 00:59N 40°40' W 074°03'0 0.0
2018-Feb-15 00:29N 40°40' W 074°03'0 0.0
2018-Feb-14 23:59N 40°40' W 074°03'0 0.1
2018-Feb-14 23:29N 40°40' W 074°03'0 0.0
2018-Feb-14 22:59N 40°40' W 074°03'0 0.2
2018-Feb-14 22:29N 40°40' W 074°03'0 0.1
2018-Feb-14 22:00N 40°39' W 074°03'0 0.1
2018-Feb-14 21:30N 40°39' W 074°03'2 4.2
2018-Feb-14 21:00N 40°41' W 074°01'4 7.3
2018-Feb-14 20:30N 40°44' W 073°58'3 6.2
2018-Feb-14 20:00N 40°47' W 073°56'3 6.2
2018-Feb-14 19:30N 40°44' W 073°58'4 7.4
2018-Feb-14 19:00N 40°41' W 074°01'4 7.8
2018-Feb-14 18:30N 40°39' W 074°05'5 9.3
2018-Feb-14 17:59N 40°38' W 074°12'2 3.8
2018-Feb-14 17:29N 40°37' W 074°12'0 0.0
2018-Feb-14 17:00N 40°37' W 074°12'1 1.4
2018-Feb-14 16:30N 40°37' W 074°12'2 3.9
2018-Feb-14 16:00N 40°39' W 074°11'3 5.9
2018-Feb-14 15:30N 40°39' W 074°07'0 0.0
2018-Feb-14 15:00N 40°39' W 074°07'0 0.0
2018-Feb-14 14:30N 40°39' W 074°07'0 0.0
2018-Feb-14 14:00N 40°39' W 074°07'0 0.0
2018-Feb-14 13:30N 40°39' W 074°07'0 0.0
2018-Feb-14 13:00N 40°39' W 074°07'0 0.0
2018-Feb-14 12:30N 40°39' W 074°07'0 0.0
2018-Feb-14 12:00N 40°39' W 074°07'0 0.0
2018-Feb-14 11:30N 40°39' W 074°07'0 0.0
2018-Feb-14 11:00N 40°39' W 074°07'0 0.0
2018-Feb-14 10:30N 40°39' W 074°07'0 0.0
2018-Feb-14 10:00N 40°39' W 074°07'0 0.0
2018-Feb-14 09:30N 40°39' W 074°07'0 0.0
2018-Feb-14 09:00N 40°39' W 074°07'0 0.0
2018-Feb-14 08:30N 40°39' W 074°07'0 0.0
2018-Feb-14 08:00N 40°39' W 074°07'0 0.0
2018-Feb-14 07:30N 40°39' W 074°07'0 0.0
2018-Feb-14 07:00N 40°39' W 074°07'0 0.0
2018-Feb-14 06:30N 40°39' W 074°07'0 0.0
2018-Feb-14 06:00N 40°39' W 074°07'0 0.2
2018-Feb-14 05:30N 40°39' W 074°07'3 6.4
2018-Feb-14 04:59N 40°39' W 074°11'3 6.3
2018-Feb-14 04:30N 40°39' W 074°07'2 5.0
2018-Feb-14 04:00N 40°41' W 074°09'1 1.4
2018-Feb-14 03:30N 40°41' W 074°10'2 3.3
2018-Feb-14 03:00N 40°40' W 074°08'2 4.8
2018-Feb-14 02:30N 40°39' W 074°06'4 8.9
2018-Feb-14 02:01N 40°41' W 074°01'4 7.9
2018-Feb-14 01:30N 40°45' W 073°58'2 4.6
2018-Feb-14 01:00N 40°47' W 073°56'5 9.2
2018-Feb-14 00:30N 40°42' W 073°59'2 3.1
2018-Feb-14 00:00N 40°41' W 074°00'2 3.7
2018-Feb-13 23:30N 40°41' W 074°02'4 8.3
2018-Feb-13 23:00N 40°39' W 074°07'3 5.6
2018-Feb-13 22:30N 40°41' W 074°09'0 0.8
2018-Feb-13 22:00N 40°41' W 074°10'0 0.1
2018-Feb-13 21:30N 40°41' W 074°10'0 0.0
2018-Feb-13 21:00N 40°41' W 074°10'0 0.0
2018-Feb-13 20:30N 40°41' W 074°10'0 0.0
2018-Feb-13 20:00N 40°41' W 074°10'0 0.0
2018-Feb-13 19:30N 40°41' W 074°10'0 0.9
2018-Feb-13 19:00N 40°41' W 074°09'3 4.9
2018-Feb-13 18:29N 40°39' W 074°11'3 6.1
2018-Feb-13 17:58N 40°36' W 074°12'3 6.0
2018-Feb-13 17:30N 40°33' W 074°14'1 2.0
2018-Feb-13 16:55N 40°33' W 074°15'1 3.1
2018-Feb-13 16:30N 40°33' W 074°14'3 6.3
2018-Feb-13 15:59N 40°37' W 074°12'0 0.0
2018-Feb-13 15:30N 40°37' W 074°12'0 0.0
2018-Feb-13 15:00N 40°37' W 074°12'2 5.0
2018-Feb-13 14:30N 40°39' W 074°11'3 5.7
2018-Feb-13 14:00N 40°39' W 074°07'0 0.0
2018-Feb-13 13:30N 40°39' W 074°07'0 0.0
2018-Feb-13 13:00N 40°39' W 074°07'0 0.0
2018-Feb-13 12:30N 40°39' W 074°07'0 0.0
2018-Feb-13 12:00N 40°39' W 074°07'0 0.0
2018-Feb-13 11:30N 40°39' W 074°07'0 0.0
2018-Feb-13 11:00N 40°39' W 074°07'0 0.0
2018-Feb-13 10:30N 40°39' W 074°07'0 0.0
2018-Feb-13 10:00N 40°39' W 074°07'2 3.4
2018-Feb-13 09:30N 40°39' W 074°09'3 6.6
2018-Feb-13 09:00N 40°36' W 074°12'1 0.4
2018-Feb-13 07:16N 40°35' W 074°12'0 0.0
2018-Feb-13 06:46N 40°35' W 074°12'0 0.0
2018-Feb-13 06:23N 40°35' W 074°12'0 0.0
2018-Feb-13 05:59N 40°35' W 074°12'0 0.0
2018-Feb-13 05:30N 40°35' W 074°12'0 0.0
2018-Feb-13 04:59N 40°35' W 074°12'0 0.0
2018-Feb-13 04:28N 40°35' W 074°12'0 0.0
2018-Feb-13 03:55N 40°35' W 074°12'0 0.0
2018-Feb-13 03:29N 40°35' W 074°12'0 0.0
2018-Feb-13 02:57N 40°35' W 074°12'0 0.0
2018-Feb-13 02:28N 40°35' W 074°12'0 0.0
2018-Feb-13 01:55N 40°35' W 074°12'3 7.8
2018-Feb-13 01:30N 40°39' W 074°11'4 8.8
2018-Feb-13 01:00N 40°39' W 074°06'3 6.2
2018-Feb-13 00:30N 40°40' W 074°02'0 0.0
2018-Feb-13 00:00N 40°40' W 074°02'0 0.0
2018-Feb-12 23:30N 40°40' W 074°02'0 0.0
2018-Feb-12 23:00N 40°40' W 074°02'0 0.0
2018-Feb-12 22:30N 40°40' W 074°02'0 0.0
2018-Feb-12 22:00N 40°40' W 074°02'0 0.0
2018-Feb-12 21:30N 40°40' W 074°02'0 0.0
2018-Feb-12 21:00N 40°40' W 074°02'0 0.0
2018-Feb-12 20:30N 40°40' W 074°02'0 0.0
2018-Feb-12 20:00N 40°40' W 074°02'0 0.0
2018-Feb-12 19:30N 40°40' W 074°02'0 0.0
2018-Feb-12 19:00N 40°40' W 074°02'0 0.0
2018-Feb-12 18:30N 40°40' W 074°02'0 0.0
2018-Feb-12 18:00N 40°40' W 074°02'0 0.0
2018-Feb-12 17:30N 40°40' W 074°02'0 0.0
2018-Feb-12 17:00N 40°40' W 074°02'0 0.0
2018-Feb-12 16:30N 40°40' W 074°02'0 0.0
2018-Feb-12 16:00N 40°40' W 074°02'0 0.0
2018-Feb-12 15:30N 40°40' W 074°02'0 0.0
2018-Feb-12 15:00N 40°40' W 074°02'0 0.0
2018-Feb-12 14:30N 40°40' W 074°02'0 0.0
2018-Feb-12 14:00N 40°40' W 074°02'0 0.0
2018-Feb-12 13:30N 40°40' W 074°02'0 0.1
2018-Feb-12 13:01N 40°40' W 074°02'4 8.7
2018-Feb-12 12:30N 40°39' W 074°07'4 7.7
2018-Feb-12 12:00N 40°37' W 074°12'4 7.9
2018-Feb-12 11:30N 40°33' W 074°13'1 1.5
2018-Feb-12 11:00N 40°34' W 074°14'0 0.0
2018-Feb-12 10:30N 40°34' W 074°14'0 0.0
2018-Feb-12 09:58N 40°34' W 074°14'0 0.0
2018-Feb-12 09:30N 40°34' W 074°14'0 0.0
2018-Feb-12 09:00N 40°34' W 074°14'0 0.0
2018-Feb-12 08:30N 40°34' W 074°14'0 0.0
2018-Feb-12 08:00N 40°34' W 074°14'0 0.0
2018-Feb-12 07:30N 40°34' W 074°14'0 0.0
2018-Feb-12 07:00N 40°34' W 074°14'0 0.0
2018-Feb-12 06:21N 40°34' W 074°14'0 0.0
2018-Feb-12 06:00N 40°34' W 074°14'0 0.0
2018-Feb-12 05:30N 40°34' W 074°14'0 0.0
2018-Feb-12 05:00N 40°34' W 074°14'0 0.0
2018-Feb-12 04:26N 40°34' W 074°14'0 0.0
2018-Feb-12 04:00N 40°34' W 074°14'2 3.9
2018-Feb-12 03:29N 40°35' W 074°13'0 0.4
2018-Feb-12 02:59N 40°35' W 074°12'0 0.3
2018-Feb-12 02:30N 40°35' W 074°12'2 3.6
2018-Feb-12 01:59N 40°33' W 074°13'1 1.8
2018-Feb-12 01:28N 40°33' W 074°14'2 3.4
2018-Feb-12 01:00N 40°34' W 074°13'1 2.9
2018-Feb-12 00:30N 40°36' W 074°12'0 0.0
2018-Feb-12 00:00N 40°36' W 074°12'0 0.0
2018-Feb-11 23:30N 40°36' W 074°12'0 0.0
2018-Feb-11 23:00N 40°36' W 074°12'0 0.0
2018-Feb-11 22:30N 40°36' W 074°12'0 0.0
2018-Feb-11 22:00N 40°36' W 074°12'0 0.0
2018-Feb-11 21:30N 40°36' W 074°12'1 1.1
2018-Feb-11 20:59N 40°35' W 074°13'0 0.0
2018-Feb-11 20:30N 40°35' W 074°13'0 0.0
2018-Feb-11 20:00N 40°35' W 074°13'0 0.7
2018-Feb-11 19:28N 40°36' W 074°12'  
Track history (hours):
 
Tides and Currents Weather Stations Pressure Air Temp Water Temp Dewpoint Dewpoint Depression Visibility Wind Speed Wind Dir Waves Ship Positions

Frederick E Bouchard

Owner: TUG FREDERICK E BOUCHARD CORP, MELVILLE, NY. More information available from US FCC via Universal Licensing System and Coast Guard Vessel Documentation Center.

Last reported at 2018-Feb-21 19:28 UTC. Time now 2018-Feb-21 19:37 UTC.
Position N 39°52' W 075°13'.

Length 138 m; draft 5.2 m.

MMSI: 367006610.

Date/timePositionNaut miles runAvg speedWind from/ knotsBaromVisibWave heightAir tempDewpointWater temp
2018-Feb-21 19:28N 39°52' W 075°13'0 0.0
2018-Feb-21 18:55N 39°52' W 075°13'0 0.0
2018-Feb-21 18:28N 39°52' W 075°13'0 0.0
2018-Feb-21 17:58N 39°52' W 075°13'0 0.1
2018-Feb-21 17:28N 39°52' W 075°13'0 0.1
2018-Feb-21 16:58N 39°52' W 075°13'0 0.0
2018-Feb-21 16:28N 39°52' W 075°13'0 0.1
2018-Feb-21 15:58N 39°52' W 075°13'0 0.0
2018-Feb-21 15:28N 39°52' W 075°13'0 0.1
2018-Feb-21 14:58N 39°52' W 075°13'0 0.0
2018-Feb-21 14:28N 39°52' W 075°13'0 0.0
2018-Feb-21 13:58N 39°52' W 075°13'0 0.0
2018-Feb-21 13:28N 39°52' W 075°13'0 0.0
2018-Feb-21 12:58N 39°52' W 075°13'0 0.0
2018-Feb-21 12:28N 39°52' W 075°13'0 0.0
2018-Feb-21 11:58N 39°52' W 075°13'0 0.1
2018-Feb-21 11:28N 39°52' W 075°13'0 0.2
2018-Feb-21 10:58N 39°52' W 075°13'0 0.1
2018-Feb-21 10:28N 39°52' W 075°13'0 0.0
2018-Feb-21 09:58N 39°52' W 075°13'0 0.0
2018-Feb-21 09:28N 39°52' W 075°13'0 0.0
2018-Feb-21 08:58N 39°52' W 075°13'0 0.0
2018-Feb-21 08:28N 39°52' W 075°13'0 0.0
2018-Feb-21 07:58N 39°52' W 075°13'0 0.0
2018-Feb-21 07:28N 39°52' W 075°13'0 0.0
2018-Feb-21 06:58N 39°52' W 075°13'0 0.0
2018-Feb-21 06:28N 39°52' W 075°13'0 0.0
2018-Feb-21 05:58N 39°52' W 075°13'0 0.1
2018-Feb-21 05:28N 39°52' W 075°13'0 0.1
2018-Feb-21 04:58N 39°52' W 075°13'0 0.0
2018-Feb-21 04:28N 39°52' W 075°13'0 0.1
2018-Feb-21 03:58N 39°52' W 075°13'0 0.0
2018-Feb-21 03:28N 39°52' W 075°13'0 0.0
2018-Feb-21 02:58N 39°52' W 075°13'0 0.0
2018-Feb-21 02:28N 39°52' W 075°13'0 0.0
2018-Feb-21 01:58N 39°52' W 075°13'0 0.0
2018-Feb-21 01:28N 39°52' W 075°13'0 0.0
2018-Feb-21 00:58N 39°52' W 075°13'0 0.0
2018-Feb-21 00:28N 39°52' W 075°13'0 0.0
2018-Feb-20 23:58N 39°52' W 075°13'0 0.0
2018-Feb-20 23:31N 39°52' W 075°13'0 0.1
2018-Feb-20 23:00N 39°52' W 075°13'3 7.0
2018-Feb-20 22:31N 39°51' W 075°17'4 8.3
2018-Feb-20 22:00N 39°50' W 075°23'2 3.1
2018-Feb-20 21:31N 39°49' W 075°24'0 0.0
2018-Feb-20 21:00N 39°49' W 075°24'0 0.0
2018-Feb-20 20:31N 39°49' W 075°24'0 0.0
2018-Feb-20 20:00N 39°49' W 075°24'0 0.0
2018-Feb-20 19:31N 39°49' W 075°24'0 0.0
2018-Feb-20 19:00N 39°49' W 075°24'0 0.0
2018-Feb-20 18:31N 39°49' W 075°24'0 0.0
2018-Feb-20 18:01N 39°49' W 075°24'0 0.0
2018-Feb-20 17:30N 39°49' W 075°24'0 0.0
2018-Feb-20 17:01N 39°49' W 075°24'0 0.0
2018-Feb-20 16:31N 39°49' W 075°24'0 0.0
2018-Feb-20 16:01N 39°49' W 075°24'0 0.0
2018-Feb-20 15:30N 39°49' W 075°24'0 0.0
2018-Feb-20 15:01N 39°49' W 075°24'0 0.0
2018-Feb-20 14:31N 39°49' W 075°24'0 0.8
2018-Feb-20 14:00N 39°49' W 075°24'3 6.1
2018-Feb-20 13:31N 39°51' W 075°21'1 2.3
2018-Feb-20 13:00N 39°51' W 075°19'0 0.0
2018-Feb-20 12:31N 39°51' W 075°19'0 0.0
2018-Feb-20 12:01N 39°51' W 075°19'0 0.0
2018-Feb-20 11:31N 39°51' W 075°19'0 0.0
2018-Feb-20 11:01N 39°51' W 075°19'0 0.0
2018-Feb-20 10:30N 39°51' W 075°19'0 0.0
2018-Feb-20 10:01N 39°51' W 075°19'0 0.0
2018-Feb-20 09:30N 39°51' W 075°19'0 0.0
2018-Feb-20 09:00N 39°51' W 075°19'0 0.0
2018-Feb-20 08:30N 39°51' W 075°19'0 0.0
2018-Feb-20 08:00N 39°51' W 075°19'0 0.0
2018-Feb-20 07:31N 39°51' W 075°19'0 0.0
2018-Feb-20 07:00N 39°51' W 075°19'0 0.0
2018-Feb-20 06:30N 39°51' W 075°19'0 0.0
2018-Feb-20 06:01N 39°51' W 075°19'0 0.0
2018-Feb-20 05:30N 39°51' W 075°19'0 0.0
2018-Feb-20 05:01N 39°51' W 075°19'0 0.0
2018-Feb-20 04:31N 39°51' W 075°19'0 0.0
2018-Feb-20 04:01N 39°51' W 075°19'0 0.0
2018-Feb-20 03:30N 39°51' W 075°19'0 0.0
2018-Feb-20 03:01N 39°51' W 075°19'0 0.0
2018-Feb-20 02:31N 39°51' W 075°19'0 0.0
2018-Feb-20 02:01N 39°51' W 075°19'0 0.0
2018-Feb-20 01:30N 39°51' W 075°19'0 0.0
2018-Feb-20 01:00N 39°51' W 075°19'0 0.0
2018-Feb-20 00:30N 39°51' W 075°19'0 0.1
2018-Feb-20 00:01N 39°51' W 075°19'0 0.0
2018-Feb-19 23:31N 39°51' W 075°19'0 0.0
2018-Feb-19 23:00N 39°51' W 075°19'0 0.0
2018-Feb-19 22:30N 39°51' W 075°19'0 0.0
2018-Feb-19 22:00N 39°51' W 075°19'0 0.0
2018-Feb-19 21:31N 39°51' W 075°19'0 0.0
2018-Feb-19 21:01N 39°51' W 075°19'0 0.0
2018-Feb-19 20:30N 39°51' W 075°19'0 0.0
2018-Feb-19 20:00N 39°51' W 075°19'0 0.0
2018-Feb-19 19:31N 39°51' W 075°19'0 0.0
2018-Feb-19 19:00N 39°51' W 075°19'0 0.0
2018-Feb-19 18:30N 39°51' W 075°19'0 0.0
2018-Feb-19 18:00N 39°51' W 075°19'0 0.0
2018-Feb-19 17:31N 39°51' W 075°19'0 0.0
2018-Feb-19 17:00N 39°51' W 075°19'0 0.0
2018-Feb-19 16:31N 39°51' W 075°19'0 0.0
2018-Feb-19 16:01N 39°51' W 075°19'0 0.0
2018-Feb-19 15:30N 39°51' W 075°19'0 0.0
2018-Feb-19 15:00N 39°51' W 075°19'0 0.0
2018-Feb-19 14:30N 39°51' W 075°19'0 0.0
2018-Feb-19 14:01N 39°51' W 075°19'0 0.0
2018-Feb-19 13:31N 39°51' W 075°19'0 0.0
2018-Feb-19 13:01N 39°51' W 075°19'1 2.9
2018-Feb-19 12:30N 39°51' W 075°18'4 7.9
2018-Feb-19 12:01N 39°52' W 075°13'0 0.1
2018-Feb-19 11:30N 39°52' W 075°13'0 0.0
2018-Feb-19 11:01N 39°52' W 075°13'0 0.1
2018-Feb-19 10:31N 39°52' W 075°13'0 0.1
2018-Feb-19 10:01N 39°52' W 075°13'0 0.0
2018-Feb-19 09:30N 39°52' W 075°13'0 0.0
2018-Feb-19 09:01N 39°52' W 075°13'0 0.0
2018-Feb-19 08:31N 39°52' W 075°13'0 0.0
2018-Feb-19 08:01N 39°52' W 075°13'0 0.0
2018-Feb-19 07:31N 39°52' W 075°13'0 0.0
2018-Feb-19 07:00N 39°52' W 075°13'0 0.0
2018-Feb-19 06:30N 39°52' W 075°13'0 0.0
2018-Feb-19 06:01N 39°52' W 075°13'0 0.0
2018-Feb-19 05:31N 39°52' W 075°13'0 0.0
2018-Feb-19 05:00N 39°52' W 075°13'0 0.1
2018-Feb-19 04:31N 39°52' W 075°13'0 0.1
2018-Feb-19 04:00N 39°52' W 075°13'0 0.1
2018-Feb-19 03:30N 39°52' W 075°13'0 0.0
2018-Feb-19 03:01N 39°52' W 075°13'2 3.4
2018-Feb-19 02:30N 39°54' W 075°12'2 3.5
2018-Feb-19 02:01N 39°52' W 075°13'0 0.0
2018-Feb-19 01:31N 39°52' W 075°13'0 0.0
2018-Feb-19 01:01N 39°52' W 075°13'0 0.0
2018-Feb-19 00:31N 39°52' W 075°13'0 0.0
2018-Feb-19 00:01N 39°52' W 075°13'2 3.3
2018-Feb-18 23:31N 39°54' W 075°12'2 3.3
2018-Feb-18 23:01N 39°52' W 075°13'0 0.0
2018-Feb-18 22:31N 39°52' W 075°13'0 0.0
2018-Feb-18 22:00N 39°52' W 075°13'0 0.0
2018-Feb-18 21:30N 39°52' W 075°13'0 0.0
2018-Feb-18 21:01N 39°52' W 075°13'0 0.1
2018-Feb-18 20:31N 39°52' W 075°13'0 0.0
2018-Feb-18 20:00N 39°52' W 075°13'0 0.0
2018-Feb-18 19:31N 39°52' W 075°13'0 0.0
2018-Feb-18 19:00N 39°52' W 075°13'0 0.0
2018-Feb-18 18:31N 39°52' W 075°13'0 0.0
2018-Feb-18 18:00N 39°52' W 075°13'0 0.5
2018-Feb-18 17:30N 39°52' W 075°13'3 6.2
2018-Feb-18 17:00N 39°51' W 075°17'5 9.6
2018-Feb-18 16:31N 39°50' W 075°23'5 9.7
2018-Feb-18 16:00N 39°47' W 075°28'5 9.1
2018-Feb-18 15:30N 39°43' W 075°30'5 8.9
2018-Feb-18 15:00N 39°39' W 075°33'4 8.0
2018-Feb-18 14:31N 39°35' W 075°33'4 8.2
2018-Feb-18 14:01N 39°31' W 075°33'4 7.6
2018-Feb-18 13:30N 39°27' W 075°33'4 8.3
2018-Feb-18 13:00N 39°24' W 075°29'4 7.7
2018-Feb-18 12:31N 39°21' W 075°26'4 7.1
2018-Feb-18 12:00N 39°18' W 075°23'4 7.1
2018-Feb-18 11:31N 39°16' W 075°20'3 6.7
2018-Feb-18 11:00N 39°13' W 075°17'3 6.8
2018-Feb-18 10:31N 39°10' W 075°15'3 6.9
2018-Feb-18 10:00N 39°07' W 075°13'3 6.4
2018-Feb-18 09:30N 39°04' W 075°11'3 6.2
2018-Feb-18 09:00N 39°02' W 075°09'3 6.1
2018-Feb-18 08:30N 38°59' W 075°07'4 5.3
2018-Feb-18 07:43N 38°55' W 075°05'52 6.9
2018-Feb-18 00:10N 39°29' W 074°15'2 8.9
2018-Feb-17 23:59N 39°31' W 074°14'4 8.7
2018-Feb-17 23:29N 39°34' W 074°11'4 8.8
2018-Feb-17 22:59N 39°38' W 074°08'5 9.0
2018-Feb-17 22:29N 39°42' W 074°05'4 8.8
2018-Feb-17 21:59N 39°46' W 074°03'29 9.1
2018-Feb-17 18:48N 40°15' W 073°58'4 9.3
2018-Feb-17 18:21N 40°19' W 073°57'3 9.3
2018-Feb-17 18:00N 40°22' W 073°56'5 9.1
2018-Feb-17 17:29N 40°27' W 073°55'4 7.7
2018-Feb-17 17:00N 40°30' W 073°57'4 8.9
2018-Feb-17 16:30N 40°33' W 074°02'4 8.7
2018-Feb-17 16:01N 40°37' W 074°03'3 5.7
2018-Feb-17 15:30N 40°40' W 074°01'2 3.2
2018-Feb-17 15:00N 40°42' W 074°00'0 0.0
2018-Feb-17 14:30N 40°42' W 074°00'0 0.0
2018-Feb-17 14:00N 40°42' W 074°00'0 0.0
2018-Feb-17 13:31N 40°42' W 074°00'0 0.1
2018-Feb-17 13:00N 40°42' W 074°00'4 7.1
2018-Feb-17 12:30N 40°40' W 074°04'4 8.3
2018-Feb-17 12:00N 40°39' W 074°09'4 7.3
2018-Feb-17 11:30N 40°36' W 074°12'3 5.3
2018-Feb-17 10:58N 40°33' W 074°14'0 0.0
2018-Feb-17 10:28N 40°33' W 074°14'0 0.0
2018-Feb-17 10:00N 40°33' W 074°14'0 0.0
2018-Feb-17 08:39N 40°33' W 074°14'0 0.0
2018-Feb-17 08:15N 40°33' W 074°14'0 0.0
2018-Feb-17 07:14N 40°33' W 074°14'0 0.2
2018-Feb-17 07:00N 40°33' W 074°15'0 0.0
2018-Feb-17 06:11N 40°33' W 074°15'0 2.1
2018-Feb-17 06:00N 40°33' W 074°14'4 8.6
2018-Feb-17 05:30N 40°38' W 074°12'4 8.4
2018-Feb-17 05:00N 40°39' W 074°07'0 0.6
2018-Feb-17 04:26N 40°39' W 074°07'0 0.0
2018-Feb-17 04:00N 40°39' W 074°07'0 0.0
2018-Feb-17 03:30N 40°39' W 074°07'2 3.5
2018-Feb-17 03:00N 40°38' W 074°09'3 6.8
2018-Feb-17 02:30N 40°36' W 074°12'4 8.3
2018-Feb-17 02:00N 40°33' W 074°15'0 0.3
2018-Feb-17 01:29N 40°33' W 074°15'1 1.6
2018-Feb-17 00:59N 40°33' W 074°14'1 1.3
2018-Feb-17 00:30N 40°33' W 074°15'0 0.0
2018-Feb-17 00:00N 40°33' W 074°15'0 0.0
2018-Feb-16 23:29N 40°33' W 074°15'0 0.0
2018-Feb-16 23:00N 40°33' W 074°15'0 0.1
2018-Feb-16 22:24N 40°33' W 074°15'0 0.1
2018-Feb-16 22:00N 40°33' W 074°15'1 1.7
2018-Feb-16 21:30N 40°33' W 074°14'3 6.0
2018-Feb-16 20:59N 40°36' W 074°12'3 6.5
2018-Feb-16 20:30N 40°39' W 074°10'2 4.8
2018-Feb-16 20:00N 40°39' W 074°07'0 0.3
2018-Feb-16 19:30N 40°39' W 074°07'0 0.0
2018-Feb-16 18:58N 40°39' W 074°07'0 0.1
2018-Feb-16 18:30N 40°39' W 074°07'0 0.8
2018-Feb-16 17:59N 40°39' W 074°07'0 0.0
2018-Feb-16 17:29N 40°39' W 074°07'0 0.0
2018-Feb-16 16:59N 40°39' W 074°07'0 0.0
2018-Feb-16 16:29N 40°39' W 074°07'0 0.0
2018-Feb-16 15:59N 40°39' W 074°07'0 0.0
2018-Feb-16 15:29N 40°39' W 074°07'0 0.0
2018-Feb-16 14:59N 40°39' W 074°07'0 0.0
2018-Feb-16 14:30N 40°39' W 074°07'0 0.0
2018-Feb-16 13:59N 40°39' W 074°07'0 0.0
2018-Feb-16 13:29N 40°39' W 074°07'0 0.0
2018-Feb-16 12:59N 40°39' W 074°07'0 0.0
2018-Feb-16 12:29N 40°39' W 074°07'0 0.0
2018-Feb-16 11:59N 40°39' W 074°07'0 0.4
2018-Feb-16 11:29N 40°39' W 074°07'0 0.0
2018-Feb-16 10:59N 40°39' W 074°07'0 0.0
2018-Feb-16 10:29N 40°39' W 074°07'0 0.0
2018-Feb-16 09:59N 40°39' W 074°07'0 0.0
2018-Feb-16 09:29N 40°39' W 074°07'0 0.0
2018-Feb-16 08:59N 40°39' W 074°07'0 0.0
2018-Feb-16 08:29N 40°39' W 074°07'0 0.0
2018-Feb-16 07:59N 40°39' W 074°07'0 0.0
2018-Feb-16 07:29N 40°39' W 074°07'0 0.0
2018-Feb-16 06:58N 40°39' W 074°07'0 0.0
2018-Feb-16 06:28N 40°39' W 074°07'0 0.0
2018-Feb-16 05:58N 40°39' W 074°07'0 0.0
2018-Feb-16 05:28N 40°39' W 074°07'0 0.0
2018-Feb-16 04:58N 40°39' W 074°07'0 0.0
2018-Feb-16 04:28N 40°39' W 074°07'0 0.0
2018-Feb-16 03:58N 40°39' W 074°07'0 0.0
2018-Feb-16 03:28N 40°39' W 074°07'0 0.0
2018-Feb-16 02:58N 40°39' W 074°07'0 0.0
2018-Feb-16 02:28N 40°39' W 074°07'0 0.0
2018-Feb-16 01:58N 40°39' W 074°07'1 2.0
2018-Feb-16 01:28N 40°39' W 074°06'0 0.0
2018-Feb-16 00:58N 40°39' W 074°06'0 0.0
2018-Feb-16 00:28N 40°39' W 074°06'0 0.0
2018-Feb-15 23:58N 40°39' W 074°06'0 0.0
2018-Feb-15 23:28N 40°39' W 074°06'0 0.0
2018-Feb-15 22:58N 40°39' W 074°06'0 0.0
2018-Feb-15 22:28N 40°39' W 074°06'0 0.0
2018-Feb-15 21:58N 40°39' W 074°06'0 0.0
2018-Feb-15 21:28N 40°39' W 074°06'0 0.0
2018-Feb-15 20:55N 40°39' W 074°06'0 0.0
2018-Feb-15 20:28N 40°39' W 074°06'0 0.0
2018-Feb-15 19:58N 40°39' W 074°06'0 0.0
2018-Feb-15 19:28N 40°39' W 074°06'0 0.0
2018-Feb-15 18:58N 40°39' W 074°06'0 0.0
2018-Feb-15 18:28N 40°39' W 074°06'0 0.0
2018-Feb-15 17:58N 40°39' W 074°06'3 5.5
2018-Feb-15 17:30N 40°39' W 074°09'3 6.0
2018-Feb-15 16:59N 40°37' W 074°12'1 0.2
2018-Feb-15 11:19N 40°35' W 074°12'3 7.7
2018-Feb-15 10:59N 40°38' W 074°12'4 8.2
2018-Feb-15 10:30N 40°39' W 074°07'5 9.2
2018-Feb-15 10:00N 40°41' W 074°01'1 2.4
2018-Feb-15 09:30N 40°41' W 074°00'0 0.1
2018-Feb-15 09:00N 40°42' W 074°00'0 0.1
2018-Feb-15 08:30N 40°41' W 074°00'0 0.0
2018-Feb-15 08:00N 40°41' W 074°00'0 0.0
2018-Feb-15 07:30N 40°41' W 074°00'0 0.0
2018-Feb-15 07:00N 40°41' W 074°00'0 0.0
2018-Feb-15 06:30N 40°42' W 074°00'0 0.0
2018-Feb-15 06:00N 40°41' W 074°00'0 0.0
2018-Feb-15 05:30N 40°41' W 074°00'0 0.0
2018-Feb-15 05:00N 40°41' W 074°00'0 0.0
2018-Feb-15 04:30N 40°41' W 074°00'2 3.6
2018-Feb-15 04:00N 40°40' W 074°02'1 1.9
2018-Feb-15 03:29N 40°39' W 074°03'0 0.1
2018-Feb-15 02:59N 40°39' W 074°03'0 0.1
2018-Feb-15 02:29N 40°40' W 074°03'0 0.0
2018-Feb-15 01:59N 40°40' W 074°03'0 0.0
2018-Feb-15 01:29N 40°40' W 074°03'0 0.0
2018-Feb-15 00:59N 40°40' W 074°03'0 0.0
2018-Feb-15 00:29N 40°40' W 074°03'0 0.0
2018-Feb-14 23:59N 40°40' W 074°03'0 0.1
2018-Feb-14 23:29N 40°40' W 074°03'0 0.0
2018-Feb-14 22:59N 40°40' W 074°03'0 0.2
2018-Feb-14 22:29N 40°40' W 074°03'0 0.1
2018-Feb-14 22:00N 40°39' W 074°03'0 0.1
2018-Feb-14 21:30N 40°39' W 074°03'2 4.2
2018-Feb-14 21:00N 40°41' W 074°01'4 7.3
2018-Feb-14 20:30N 40°44' W 073°58'3 6.2
2018-Feb-14 20:00N 40°47' W 073°56'3 6.2
2018-Feb-14 19:30N 40°44' W 073°58'4 7.4
2018-Feb-14 19:00N 40°41' W 074°01'4 7.8
2018-Feb-14 18:30N 40°39' W 074°05'5 9.3
2018-Feb-14 17:59N 40°38' W 074°12'2 3.8
2018-Feb-14 17:29N 40°37' W 074°12'0 0.0
2018-Feb-14 17:00N 40°37' W 074°12'1 1.4
2018-Feb-14 16:30N 40°37' W 074°12'2 3.9
2018-Feb-14 16:00N 40°39' W 074°11'3 5.9
2018-Feb-14 15:30N 40°39' W 074°07'0 0.0
2018-Feb-14 15:00N 40°39' W 074°07'0 0.0
2018-Feb-14 14:30N 40°39' W 074°07'0 0.0
2018-Feb-14 14:00N 40°39' W 074°07'0 0.0
2018-Feb-14 13:30N 40°39' W 074°07'0 0.0
2018-Feb-14 13:00N 40°39' W 074°07'0 0.0
2018-Feb-14 12:30N 40°39' W 074°07'0 0.0
2018-Feb-14 12:00N 40°39' W 074°07'0 0.0
2018-Feb-14 11:30N 40°39' W 074°07'0 0.0
2018-Feb-14 11:00N 40°39' W 074°07'0 0.0
2018-Feb-14 10:30N 40°39' W 074°07'0 0.0
2018-Feb-14 10:00N 40°39' W 074°07'0 0.0
2018-Feb-14 09:30N 40°39' W 074°07'0 0.0
2018-Feb-14 09:00N 40°39' W 074°07'0 0.0
2018-Feb-14 08:30N 40°39' W 074°07'0 0.0
2018-Feb-14 08:00N 40°39' W 074°07'0 0.0
2018-Feb-14 07:30N 40°39' W 074°07'0 0.0
2018-Feb-14 07:00N 40°39' W 074°07'0 0.0
2018-Feb-14 06:30N 40°39' W 074°07'0 0.0
2018-Feb-14 06:00N 40°39' W 074°07'0 0.2
2018-Feb-14 05:30N 40°39' W 074°07'3 6.4
2018-Feb-14 04:59N 40°39' W 074°11'3 6.3
2018-Feb-14 04:30N 40°39' W 074°07'2 5.0
2018-Feb-14 04:00N 40°41' W 074°09'1 1.4
2018-Feb-14 03:30N 40°41' W 074°10'2 3.3
2018-Feb-14 03:00N 40°40' W 074°08'2 4.8
2018-Feb-14 02:30N 40°39' W 074°06'4 8.9
2018-Feb-14 02:01N 40°41' W 074°01'4 7.9
2018-Feb-14 01:30N 40°45' W 073°58'2 4.6
2018-Feb-14 01:00N 40°47' W 073°56'5 9.2
2018-Feb-14 00:30N 40°42' W 073°59'2 3.1
2018-Feb-14 00:00N 40°41' W 074°00'2 3.7
2018-Feb-13 23:30N 40°41' W 074°02'4 8.3
2018-Feb-13 23:00N 40°39' W 074°07'3 5.6
2018-Feb-13 22:30N 40°41' W 074°09'0 0.8
2018-Feb-13 22:00N 40°41' W 074°10'0 0.1
2018-Feb-13 21:30N 40°41' W 074°10'0 0.0
2018-Feb-13 21:00N 40°41' W 074°10'0 0.0
2018-Feb-13 20:30N 40°41' W 074°10'0 0.0
2018-Feb-13 20:00N 40°41' W 074°10'0 0.0
2018-Feb-13 19:30N 40°41' W 074°10'0 0.9
2018-Feb-13 19:00N 40°41' W 074°09'3 4.9
2018-Feb-13 18:29N 40°39' W 074°11'3 6.1
2018-Feb-13 17:58N 40°36' W 074°12'3 6.0
2018-Feb-13 17:30N 40°33' W 074°14'1 2.0
2018-Feb-13 16:55N 40°33' W 074°15'1 3.1
2018-Feb-13 16:30N 40°33' W 074°14'3 6.3
2018-Feb-13 15:59N 40°37' W 074°12'0 0.0
2018-Feb-13 15:30N 40°37' W 074°12'0 0.0
2018-Feb-13 15:00N 40°37' W 074°12'2 5.0
2018-Feb-13 14:30N 40°39' W 074°11'3 5.7
2018-Feb-13 14:00N 40°39' W 074°07'0 0.0
2018-Feb-13 13:30N 40°39' W 074°07'0 0.0
2018-Feb-13 13:00N 40°39' W 074°07'0 0.0
2018-Feb-13 12:30N 40°39' W 074°07'0 0.0
2018-Feb-13 12:00N 40°39' W 074°07'0 0.0
2018-Feb-13 11:30N 40°39' W 074°07'0 0.0
2018-Feb-13 11:00N 40°39' W 074°07'0 0.0
2018-Feb-13 10:30N 40°39' W 074°07'0 0.0
2018-Feb-13 10:00N 40°39' W 074°07'2 3.4
2018-Feb-13 09:30N 40°39' W 074°09'3 6.6
2018-Feb-13 09:00N 40°36' W 074°12'1 0.4
2018-Feb-13 07:16N 40°35' W 074°12'0 0.0
2018-Feb-13 06:46N 40°35' W 074°12'0 0.0
2018-Feb-13 06:23N 40°35' W 074°12'0 0.0
2018-Feb-13 05:59N 40°35' W 074°12'0 0.0
2018-Feb-13 05:30N 40°35' W 074°12'0 0.0
2018-Feb-13 04:59N 40°35' W 074°12'0 0.0
2018-Feb-13 04:28N 40°35' W 074°12'0 0.0
2018-Feb-13 03:55N 40°35' W 074°12'0 0.0
2018-Feb-13 03:29N 40°35' W 074°12'0 0.0
2018-Feb-13 02:57N 40°35' W 074°12'0 0.0
2018-Feb-13 02:28N 40°35' W 074°12'0 0.0
2018-Feb-13 01:55N 40°35' W 074°12'3 7.8
2018-Feb-13 01:30N 40°39' W 074°11'4 8.8
2018-Feb-13 01:00N 40°39' W 074°06'3 6.2
2018-Feb-13 00:30N 40°40' W 074°02'0 0.0
2018-Feb-13 00:00N 40°40' W 074°02'0 0.0
2018-Feb-12 23:30N 40°40' W 074°02'0 0.0
2018-Feb-12 23:00N 40°40' W 074°02'0 0.0
2018-Feb-12 22:30N 40°40' W 074°02'0 0.0
2018-Feb-12 22:00N 40°40' W 074°02'0 0.0
2018-Feb-12 21:30N 40°40' W 074°02'0 0.0
2018-Feb-12 21:00N 40°40' W 074°02'0 0.0
2018-Feb-12 20:30N 40°40' W 074°02'0 0.0
2018-Feb-12 20:00N 40°40' W 074°02'0 0.0
2018-Feb-12 19:30N 40°40' W 074°02'0 0.0
2018-Feb-12 19:00N 40°40' W 074°02'0 0.0
2018-Feb-12 18:30N 40°40' W 074°02'0 0.0
2018-Feb-12 18:00N 40°40' W 074°02'0 0.0
2018-Feb-12 17:30N 40°40' W 074°02'0 0.0
2018-Feb-12 17:00N 40°40' W 074°02'0 0.0
2018-Feb-12 16:30N 40°40' W 074°02'0 0.0
2018-Feb-12 16:00N 40°40' W 074°02'0 0.0
2018-Feb-12 15:30N 40°40' W 074°02'0 0.0
2018-Feb-12 15:00N 40°40' W 074°02'0 0.0
2018-Feb-12 14:30N 40°40' W 074°02'0 0.0
2018-Feb-12 14:00N 40°40' W 074°02'0 0.0
2018-Feb-12 13:30N 40°40' W 074°02'0 0.1
2018-Feb-12 13:01N 40°40' W 074°02'4 8.7
2018-Feb-12 12:30N 40°39' W 074°07'4 7.7
2018-Feb-12 12:00N 40°37' W 074°12'4 7.9
2018-Feb-12 11:30N 40°33' W 074°13'1 1.5
2018-Feb-12 11:00N 40°34' W 074°14'0 0.0
2018-Feb-12 10:30N 40°34' W 074°14'0 0.0
2018-Feb-12 09:58N 40°34' W 074°14'0 0.0
2018-Feb-12 09:30N 40°34' W 074°14'0 0.0
2018-Feb-12 09:00N 40°34' W 074°14'0 0.0
2018-Feb-12 08:30N 40°34' W 074°14'0 0.0
2018-Feb-12 08:00N 40°34' W 074°14'0 0.0
2018-Feb-12 07:30N 40°34' W 074°14'0 0.0
2018-Feb-12 07:00N 40°34' W 074°14'0 0.0
2018-Feb-12 06:21N 40°34' W 074°14'0 0.0
2018-Feb-12 06:00N 40°34' W 074°14'0 0.0
2018-Feb-12 05:30N 40°34' W 074°14'0 0.0
2018-Feb-12 05:00N 40°34' W 074°14'0 0.0
2018-Feb-12 04:26N 40°34' W 074°14'0 0.0
2018-Feb-12 04:00N 40°34' W 074°14'2 3.9
2018-Feb-12 03:29N 40°35' W 074°13'0 0.4
2018-Feb-12 02:59N 40°35' W 074°12'0 0.3
2018-Feb-12 02:30N 40°35' W 074°12'2 3.6
2018-Feb-12 01:59N 40°33' W 074°13'1 1.8
2018-Feb-12 01:28N 40°33' W 074°14'2 3.4
2018-Feb-12 01:00N 40°34' W 074°13'1 2.9
2018-Feb-12 00:30N 40°36' W 074°12'0 0.0
2018-Feb-12 00:00N 40°36' W 074°12'0 0.0
2018-Feb-11 23:30N 40°36' W 074°12'0 0.0
2018-Feb-11 23:00N 40°36' W 074°12'0 0.0
2018-Feb-11 22:30N 40°36' W 074°12'0 0.0
2018-Feb-11 22:00N 40°36' W 074°12'0 0.0
2018-Feb-11 21:30N 40°36' W 074°12'1 1.1
2018-Feb-11 20:59N 40°35' W 074°13'0 0.0
2018-Feb-11 20:30N 40°35' W 074°13'0 0.0
2018-Feb-11 20:00N 40°35' W 074°13'0 0.7
2018-Feb-11 19:28N 40°36' W 074°12'  

Dump ship's entire track history